createdAt,value
2022-12-04T00:00:40.620Z,25.23
2022-12-04T00:03:27.599Z,23.63
2022-12-04T00:06:17.563Z,24.37
2022-12-04T00:09:06.090Z,23.40
2022-12-04T00:11:52.792Z,25.13
2022-12-04T00:15:00.767Z,26.57
2022-12-04T00:17:48.665Z,24.53
2022-12-04T00:20:35.584Z,23.13
2022-12-04T00:23:23.399Z,24.30
2022-12-04T00:26:12.923Z,25.80
2022-12-04T00:28:59.853Z,24.03
2022-12-04T00:31:46.901Z,25.93
2022-12-04T00:34:34.185Z,25.00
2022-12-04T00:37:21.193Z,27.17
2022-12-04T00:40:10.832Z,24.87
2022-12-04T00:42:57.632Z,26.23
2022-12-04T00:45:44.754Z,26.20
2022-12-04T00:48:33.904Z,25.70
2022-12-04T00:51:24.187Z,24.97
2022-12-04T00:54:10.743Z,24.87
2022-12-04T00:56:59.247Z,25.60
2022-12-04T00:59:46.003Z,25.03
2022-12-04T01:02:35.121Z,24.33
2022-12-04T01:05:22.001Z,23.93
2022-12-04T01:08:09.723Z,27.27
2022-12-04T01:10:56.261Z,24.90
2022-12-04T01:13:46.486Z,26.93
2022-12-04T01:16:35.949Z,24.77
2022-12-04T01:19:22.633Z,27.77
2022-12-04T01:22:09.391Z,25.30
2022-12-04T01:24:56.680Z,26.30
2022-12-04T01:27:43.319Z,27.23
2022-12-04T01:30:31.654Z,26.67
2022-12-04T01:33:18.455Z,25.73
2022-12-04T01:36:07.979Z,26.63
2022-12-04T01:38:55.306Z,26.23
2022-12-04T01:41:41.829Z,25.90
2022-12-04T01:44:30.449Z,25.67
2022-12-04T01:47:18.289Z,28.10
2022-12-04T01:50:05.880Z,28.70
2022-12-04T01:52:52.628Z,28.47
2022-12-04T01:55:40.288Z,24.30
2022-12-04T01:58:32.758Z,26.67
2022-12-04T02:01:19.913Z,24.83
2022-12-04T02:04:07.782Z,29.17
2022-12-04T02:06:54.326Z,26.60
2022-12-04T02:09:43.190Z,27.57
2022-12-04T02:12:35.991Z,27.47
2022-12-04T02:15:27.436Z,28.40
2022-12-04T02:18:20.659Z,29.27
2022-12-04T02:21:12.847Z,25.87
2022-12-04T02:24:20.642Z,27.80
2022-12-04T02:27:14.986Z,29.57
2022-12-04T02:30:10.169Z,26.47
2022-12-04T02:33:02.935Z,24.33
2022-12-04T02:35:55.296Z,27.17
2022-12-04T02:38:45.699Z,28.97
2022-12-04T02:41:41.879Z,29.63
2022-12-04T02:44:33.504Z,27.97
2022-12-04T02:47:23.836Z,27.93
2022-12-04T02:50:14.650Z,25.93
2022-12-04T02:53:06.897Z,27.13
2022-12-04T02:55:57.185Z,27.13
2022-12-04T02:58:48.463Z,24.80
2022-12-04T03:01:43.386Z,25.07
2022-12-04T03:04:32.069Z,28.47
2022-12-04T03:07:25.182Z,27.17
2022-12-04T03:10:17.039Z,28.27
2022-12-04T03:13:07.423Z,27.00
2022-12-04T03:16:00.173Z,27.63
2022-12-04T03:18:49.741Z,26.80
2022-12-04T03:21:40.749Z,28.23
2022-12-04T03:24:34.663Z,27.00
2022-12-04T03:27:29.833Z,27.83
2022-12-04T03:30:19.054Z,24.63
2022-12-04T03:33:12.003Z,26.03
2022-12-04T03:36:04.217Z,26.80
2022-12-04T03:38:59.240Z,25.87
2022-12-04T03:41:56.537Z,28.37
2022-12-04T03:44:47.413Z,26.03
2022-12-04T03:47:39.997Z,25.53
2022-12-04T03:50:35.980Z,27.17
2022-12-04T03:53:31.668Z,26.80
2022-12-04T03:56:24.008Z,28.03
2022-12-04T03:59:18.005Z,25.97
2022-12-04T04:02:09.455Z,25.33
2022-12-04T04:05:00.122Z,24.77
2022-12-04T04:07:51.314Z,27.43
2022-12-04T04:10:38.155Z,25.23
2022-12-04T04:13:51.254Z,26.17
2022-12-04T04:17:00.476Z,25.20
2022-12-04T04:20:08.823Z,26.60
2022-12-04T04:23:17.340Z,25.63
2022-12-04T04:26:05.603Z,22.13
2022-12-04T04:28:53.754Z,24.40
2022-12-04T04:31:44.584Z,25.87
2022-12-04T04:34:41.092Z,25.33
2022-12-04T04:37:36.198Z,25.77
2022-12-04T04:40:28.063Z,23.10
2022-12-04T04:43:23.433Z,25.07
2022-12-04T04:46:17.426Z,22.97
2022-12-04T04:49:08.604Z,25.90
2022-12-04T04:51:56.344Z,24.87
2022-12-04T04:54:43.452Z,24.93
2022-12-04T04:57:31.871Z,24.63
2022-12-04T05:00:22.909Z,24.27
2022-12-04T05:03:13.517Z,25.73
2022-12-04T05:06:00.936Z,24.10
2022-12-04T05:08:50.494Z,26.13
2022-12-04T05:11:37.280Z,23.63
2022-12-04T05:14:24.011Z,26.10
2022-12-04T05:17:12.839Z,26.50
2022-12-04T05:20:01.122Z,25.67
2022-12-04T05:22:47.824Z,24.13
2022-12-04T05:25:37.426Z,24.33
2022-12-04T05:28:23.946Z,22.07
2022-12-04T05:31:11.052Z,26.20
2022-12-04T05:33:57.981Z,24.93
2022-12-04T05:36:46.157Z,19.73
2022-12-04T05:39:35.028Z,23.70
2022-12-04T05:42:22.114Z,24.67
2022-12-04T05:45:09.600Z,24.63
2022-12-04T05:47:56.186Z,25.80
2022-12-04T05:50:43.153Z,23.10
2022-12-04T05:53:34.284Z,25.07
2022-12-04T05:56:21.065Z,23.73
2022-12-04T06:02:11.778Z,25.03
2022-12-04T06:05:00.644Z,22.57
2022-12-04T06:07:49.584Z,22.53
2022-12-04T06:10:37.803Z,25.37
2022-12-04T06:13:24.403Z,25.10
2022-12-04T06:16:18.414Z,24.47
2022-12-04T06:19:12.166Z,25.37
2022-12-04T06:21:59.230Z,25.03
2022-12-04T06:24:51.127Z,21.87
2022-12-04T06:27:41.175Z,23.50
2022-12-04T06:30:30.521Z,23.93
2022-12-04T06:33:19.485Z,24.00
2022-12-04T06:36:11.701Z,24.30
2022-12-04T06:38:59.570Z,24.17
2022-12-04T06:41:48.766Z,22.93
2022-12-04T06:44:36.872Z,23.57
2022-12-04T06:47:25.954Z,24.30
2022-12-04T06:50:15.254Z,27.63
2022-12-04T06:53:08.366Z,28.37
2022-12-04T06:55:56.934Z,26.97
2022-12-04T06:58:43.565Z,24.73
2022-12-04T07:01:33.549Z,24.80
2022-12-04T07:04:23.420Z,23.67
2022-12-04T07:07:13.188Z,25.47
2022-12-04T07:09:59.755Z,24.20
2022-12-04T07:12:46.627Z,25.23
2022-12-04T07:15:44.344Z,25.60
2022-12-04T07:18:35.905Z,25.03
2022-12-04T07:21:28.381Z,25.97
2022-12-04T07:24:17.105Z,25.33
2022-12-04T07:27:05.770Z,28.33
2022-12-04T07:29:55.883Z,32.23
2022-12-04T07:32:45.255Z,26.07
2022-12-04T07:35:35.682Z,30.60
2022-12-04T07:38:22.358Z,32.40
2022-12-04T07:41:12.371Z,32.27
2022-12-04T07:43:59.246Z,26.90
2022-12-04T07:46:47.958Z,31.93
2022-12-04T07:49:34.662Z,27.57
2022-12-04T07:52:26.023Z,25.17
2022-12-04T07:55:18.804Z,25.00
2022-12-04T07:58:13.348Z,26.30
2022-12-04T08:01:11.441Z,24.43
2022-12-04T08:04:07.109Z,24.87
2022-12-04T08:06:53.877Z,25.63
2022-12-04T08:09:44.871Z,27.13
2022-12-04T08:12:32.819Z,25.67
2022-12-04T08:15:23.999Z,24.80
2022-12-04T08:18:12.832Z,26.87
2022-12-04T08:21:08.497Z,25.77
2022-12-04T08:23:59.160Z,27.47
2022-12-04T08:26:54.316Z,24.13
2022-12-04T08:29:40.728Z,25.73
2022-12-04T08:32:29.701Z,26.33
2022-12-04T08:35:16.535Z,23.33
2022-12-04T08:38:03.519Z,24.80
2022-12-04T08:40:52.209Z,24.20
2022-12-04T08:43:41.760Z,26.03
2022-12-04T08:46:32.178Z,24.60
2022-12-04T08:49:20.234Z,26.07
2022-12-04T08:52:11.099Z,24.97
2022-12-04T08:54:57.526Z,25.57
2022-12-04T08:57:46.821Z,24.93
2022-12-04T09:00:37.691Z,24.37
2022-12-04T09:03:31.037Z,26.57
2022-12-04T09:06:19.898Z,25.00
2022-12-04T09:09:11.143Z,24.23
2022-12-04T09:11:58.257Z,25.27
2022-12-04T09:14:44.805Z,24.33
2022-12-04T09:17:42.484Z,26.70
2022-12-04T09:20:31.102Z,30.30
2022-12-04T09:23:18.401Z,26.13
2022-12-04T09:26:33.053Z,26.80
2022-12-04T09:29:21.699Z,28.57
2022-12-04T09:32:10.528Z,25.37
2022-12-04T09:34:59.607Z,25.97
2022-12-04T09:37:48.347Z,24.13
2022-12-04T09:40:42.784Z,28.67
2022-12-04T09:43:43.213Z,25.07
2022-12-04T09:46:37.443Z,22.13
2022-12-04T09:49:40.506Z,25.30
2022-12-04T09:52:47.553Z,23.90
2022-12-04T09:55:41.833Z,21.93
2022-12-04T09:58:36.667Z,27.20
2022-12-04T10:01:34.446Z,25.30
2022-12-04T10:04:23.801Z,26.70
2022-12-04T10:07:17.898Z,22.90
2022-12-04T10:10:20.625Z,25.73
2022-12-04T10:13:34.478Z,21.60
2022-12-04T10:16:30.361Z,24.07
2022-12-04T10:19:29.181Z,23.47
2022-12-04T10:23:18.457Z,22.93
2022-12-04T10:26:15.293Z,22.83
2022-12-04T10:29:09.106Z,23.67
2022-12-04T10:32:07.596Z,23.67
2022-12-04T10:35:26.025Z,20.93
2022-12-04T10:38:28.988Z,22.30
2022-12-04T10:41:50.719Z,23.80
2022-12-04T10:44:37.356Z,23.03
2022-12-04T10:47:25.554Z,22.40
2022-12-04T10:50:28.780Z,21.97
2022-12-04T10:53:23.769Z,22.67
2022-12-04T10:57:00.663Z,24.60
2022-12-04T11:03:32.839Z,22.33
2022-12-04T11:06:28.704Z,21.30
2022-12-04T11:09:30.929Z,21.60
2022-12-04T11:12:36.736Z,22.40
2022-12-04T11:15:30.225Z,23.17
2022-12-04T11:18:23.003Z,21.93
2022-12-04T11:21:25.124Z,21.13
2022-12-04T11:24:55.701Z,23.87
2022-12-04T11:27:42.231Z,23.00
2022-12-04T11:30:42.451Z,24.17
2022-12-04T11:33:56.003Z,20.67
2022-12-04T11:36:59.121Z,20.97
2022-12-04T11:40:05.029Z,21.93
2022-12-04T11:43:14.996Z,20.97
2022-12-04T11:46:10.714Z,21.80
2022-12-04T11:49:00.510Z,20.83
2022-12-04T11:52:04.956Z,20.60
2022-12-04T11:55:08.562Z,21.83
2022-12-04T11:58:12.119Z,19.13
2022-12-04T12:01:17.428Z,18.40
2022-12-04T12:04:33.930Z,22.90
2022-12-04T12:07:39.425Z,21.77
2022-12-04T12:10:41.575Z,21.53
2022-12-04T12:13:45.609Z,23.27
2022-12-04T12:17:00.756Z,21.77
2022-12-04T12:20:16.921Z,21.00
2022-12-04T12:23:40.967Z,24.23
2022-12-04T12:26:46.954Z,20.60
2022-12-04T12:29:54.879Z,20.17
2022-12-04T12:33:07.502Z,22.67
2022-12-04T12:36:08.203Z,22.20
2022-12-04T12:38:59.011Z,23.63
2022-12-04T12:42:02.282Z,22.33
2022-12-04T12:45:05.833Z,20.47
2022-12-04T12:48:01.039Z,20.33
2022-12-04T12:51:28.394Z,20.50
2022-12-04T12:54:40.898Z,21.37
2022-12-04T12:57:34.572Z,18.87
2022-12-04T13:00:22.981Z,21.53
2022-12-04T13:03:29.669Z,22.57
2022-12-04T13:06:21.966Z,22.90
2022-12-04T13:09:27.484Z,21.63
2022-12-04T13:12:25.222Z,22.57
2022-12-04T13:15:19.143Z,22.90
2022-12-04T13:18:15.010Z,23.13
2022-12-04T13:21:14.064Z,21.63
2022-12-04T13:24:37.307Z,22.20
2022-12-04T13:27:41.518Z,22.73
2022-12-04T13:30:37.037Z,22.43
2022-12-04T13:34:06.638Z,22.37
2022-12-04T13:37:22.130Z,20.33
2022-12-04T13:40:34.683Z,22.27
2022-12-04T13:43:48.319Z,23.90
2022-12-04T13:46:41.279Z,21.77
2022-12-04T13:49:44.177Z,24.00
2022-12-04T13:52:42.371Z,21.10
2022-12-04T13:55:45.330Z,22.70
2022-12-04T13:58:36.018Z,23.43
2022-12-04T14:01:45.192Z,24.20
2022-12-04T14:04:46.083Z,23.03
2022-12-04T14:07:38.441Z,24.53
2022-12-04T14:10:33.688Z,22.87
2022-12-04T14:13:34.448Z,22.97
2022-12-04T14:16:31.310Z,21.67
2022-12-04T14:19:40.370Z,24.93
2022-12-04T14:22:48.785Z,24.13
2022-12-04T14:26:13.014Z,24.90
2022-12-04T14:29:19.355Z,23.67
2022-12-04T14:32:18.680Z,23.70
2022-12-04T14:35:18.545Z,22.83
2022-12-04T14:38:10.860Z,23.83
2022-12-04T14:41:06.324Z,23.13
2022-12-04T14:43:53.182Z,22.07
2022-12-04T14:46:48.791Z,25.10
2022-12-04T14:49:51.439Z,23.03
2022-12-04T14:52:50.185Z,23.17
2022-12-04T14:55:44.894Z,23.43
2022-12-04T14:58:35.632Z,22.67
2022-12-04T15:01:31.133Z,20.50
2022-12-04T15:04:29.103Z,23.57
2022-12-04T15:07:25.220Z,20.90
2022-12-04T15:10:40.794Z,22.57
2022-12-04T15:13:31.806Z,18.17
2022-12-04T15:16:34.573Z,21.27
2022-12-04T15:19:25.739Z,22.73
2022-12-04T15:22:23.254Z,21.40
2022-12-04T15:25:32.227Z,24.00
2022-12-04T15:28:43.758Z,21.00
2022-12-04T15:31:48.240Z,21.27
2022-12-04T15:34:44.596Z,22.07
2022-12-04T15:37:37.953Z,23.00
2022-12-04T15:40:31.425Z,23.33
2022-12-04T15:43:35.528Z,25.67
2022-12-04T15:46:25.098Z,23.00
2022-12-04T15:49:26.433Z,22.13
2022-12-04T15:52:17.169Z,22.97
2022-12-04T15:55:09.887Z,24.50
2022-12-04T15:57:58.950Z,25.57
2022-12-04T16:00:48.085Z,24.17
2022-12-04T16:03:52.631Z,20.40
2022-12-04T16:06:58.648Z,23.03
2022-12-04T16:09:57.965Z,22.33
2022-12-04T16:12:55.524Z,26.80
2022-12-04T16:15:47.637Z,24.47
2022-12-04T16:18:34.498Z,28.57
2022-12-04T16:21:27.581Z,24.97
2022-12-04T16:24:18.103Z,25.70
2022-12-04T16:27:15.644Z,24.10
2022-12-04T16:30:02.135Z,24.97
2022-12-04T16:32:48.850Z,24.07
2022-12-04T16:35:39.863Z,24.27
2022-12-04T16:38:27.390Z,22.63
2022-12-04T16:41:17.020Z,23.23
2022-12-04T16:44:04.030Z,22.57
2022-12-04T16:46:53.075Z,25.17
2022-12-04T16:49:39.924Z,22.33
2022-12-04T16:52:28.859Z,24.63
2022-12-04T16:55:23.118Z,25.47
2022-12-04T16:58:16.224Z,25.33
2022-12-04T17:01:05.225Z,24.20
2022-12-04T17:03:55.489Z,24.83
2022-12-04T17:06:42.886Z,33.90
2022-12-04T17:09:36.649Z,34.17
2022-12-04T17:12:23.031Z,34.53
2022-12-04T17:15:13.090Z,26.40
2022-12-04T17:17:59.469Z,23.97
2022-12-04T17:20:48.667Z,25.87
2022-12-04T17:23:35.062Z,23.73
2022-12-04T17:26:22.208Z,26.77
2022-12-04T17:29:09.599Z,19.90
2022-12-04T17:32:15.147Z,25.60
2022-12-04T17:35:07.197Z,23.40
2022-12-04T17:37:59.423Z,22.80
2022-12-04T17:41:05.067Z,24.77
2022-12-04T17:43:55.688Z,21.83
2022-12-04T17:46:44.824Z,21.13
2022-12-04T17:49:34.631Z,26.43
2022-12-04T17:52:22.723Z,22.77
2022-12-04T17:55:10.053Z,24.87
2022-12-04T17:58:01.130Z,22.17
2022-12-04T18:00:47.650Z,21.83
2022-12-04T18:03:34.890Z,23.50
2022-12-04T18:06:27.722Z,24.60
2022-12-04T18:09:17.656Z,23.40
2022-12-04T18:12:04.922Z,22.63
2022-12-04T18:14:53.657Z,24.90
2022-12-04T18:17:40.048Z,23.07
2022-12-04T18:20:27.493Z,24.30
2022-12-04T18:23:18.143Z,23.73
2022-12-04T18:26:07.445Z,20.60
2022-12-04T18:28:55.564Z,22.20
2022-12-04T18:31:54.932Z,20.90
2022-12-04T18:34:44.036Z,20.03
2022-12-04T18:37:34.233Z,23.60
2022-12-04T18:40:23.029Z,20.80
2022-12-04T18:43:15.364Z,19.57
2022-12-04T18:46:08.056Z,20.33
2022-12-04T18:49:00.223Z,21.03
2022-12-04T18:51:56.831Z,22.10
2022-12-04T18:54:45.421Z,21.80
2022-12-04T18:57:36.365Z,20.43
2022-12-04T19:00:23.405Z,21.07
2022-12-04T19:03:12.600Z,21.70
2022-12-04T19:05:59.383Z,19.73
2022-12-04T19:08:46.468Z,21.97
2022-12-04T19:11:45.302Z,21.27
2022-12-04T19:14:38.717Z,21.07
2022-12-04T19:17:26.520Z,20.13
2022-12-04T19:20:16.059Z,19.60
2022-12-04T19:23:04.943Z,19.27
2022-12-04T19:25:58.694Z,20.37
2022-12-04T19:28:47.954Z,19.87
2022-12-04T19:31:41.045Z,20.87
2022-12-04T19:34:30.159Z,18.47
2022-12-04T19:37:17.123Z,21.47
2022-12-04T19:40:06.672Z,20.00
2022-12-04T19:43:01.135Z,20.17
2022-12-04T19:45:50.162Z,19.07
2022-12-04T19:48:39.712Z,19.33
2022-12-04T19:51:41.108Z,20.30
2022-12-04T19:54:32.608Z,19.50
2022-12-04T19:57:19.236Z,19.57
2022-12-04T20:00:09.338Z,22.30
2022-12-04T20:03:02.501Z,20.80
2022-12-04T20:06:02.296Z,21.80
2022-12-04T20:09:10.077Z,19.53
2022-12-04T20:12:04.582Z,20.93
2022-12-04T20:14:54.493Z,22.80
2022-12-04T20:17:46.116Z,20.43
2022-12-04T20:20:38.076Z,22.10
2022-12-04T20:23:37.437Z,21.83
2022-12-04T20:26:44.599Z,20.83
2022-12-04T20:30:25.472Z,20.63
2022-12-04T20:33:27.316Z,22.03
2022-12-04T20:36:26.570Z,20.23
2022-12-04T20:39:24.390Z,20.87
2022-12-04T20:42:13.723Z,20.43
2022-12-04T20:45:00.187Z,21.03
2022-12-04T20:47:51.419Z,20.17
2022-12-04T20:50:40.176Z,19.80
2022-12-04T20:53:29.499Z,22.07
2022-12-04T20:56:23.436Z,21.00
2022-12-04T20:59:22.670Z,20.47
2022-12-04T21:02:16.352Z,18.93
2022-12-04T21:05:05.127Z,19.10
2022-12-04T21:08:00.890Z,23.97
2022-12-04T21:10:47.607Z,23.43
2022-12-04T21:13:58.809Z,21.27
2022-12-04T21:16:52.088Z,20.17
2022-12-04T21:19:40.063Z,21.93
2022-12-04T21:22:29.000Z,20.67
2022-12-04T21:25:15.915Z,19.90
2022-12-04T21:28:03.575Z,21.23
2022-12-04T21:30:54.420Z,21.13
2022-12-04T21:33:44.958Z,20.00
2022-12-04T21:36:42.649Z,21.73
2022-12-04T21:39:39.860Z,19.87
2022-12-04T21:42:41.167Z,19.40
2022-12-04T21:45:30.079Z,21.33
2022-12-04T21:48:20.507Z,21.23
2022-12-04T21:51:32.705Z,21.93
2022-12-04T21:54:20.716Z,21.70
2022-12-04T21:57:17.107Z,22.03
2022-12-04T22:00:07.880Z,19.87
2022-12-04T22:03:05.114Z,23.30
2022-12-04T22:05:57.439Z,22.30
2022-12-04T22:08:50.442Z,21.47
2022-12-04T22:11:43.806Z,21.60
2022-12-04T22:14:34.750Z,22.70
2022-12-04T22:17:30.600Z,21.63
2022-12-04T22:20:21.914Z,21.40
2022-12-04T22:23:15.205Z,22.80
2022-12-04T22:26:16.924Z,19.17
2022-12-04T22:29:20.813Z,20.00
2022-12-04T22:32:11.658Z,22.67
2022-12-04T22:34:58.318Z,23.17
2022-12-04T22:37:45.493Z,20.53
2022-12-04T22:40:35.786Z,20.37
2022-12-04T22:43:24.496Z,23.40
2022-12-04T22:46:16.802Z,21.43
2022-12-04T22:49:06.425Z,20.80
2022-12-04T22:52:00.260Z,23.60
2022-12-04T22:54:46.820Z,21.23
2022-12-04T22:57:35.480Z,21.07
2022-12-04T23:00:26.853Z,22.93
2022-12-04T23:03:13.806Z,22.87
2022-12-04T23:06:01.783Z,21.80
2022-12-04T23:08:48.972Z,20.93
2022-12-04T23:11:39.378Z,20.30
2022-12-04T23:14:30.342Z,21.50
2022-12-04T23:17:19.688Z,22.10
2022-12-04T23:20:10.334Z,20.07
2022-12-04T23:22:59.090Z,23.27
2022-12-04T23:25:46.204Z,21.10
2022-12-04T23:28:33.003Z,23.73
2022-12-04T23:31:21.092Z,22.07
2022-12-04T23:34:08.130Z,20.90
2022-12-04T23:36:54.884Z,22.30
2022-12-04T23:39:42.014Z,22.23
2022-12-04T23:42:31.952Z,22.87
2022-12-04T23:45:18.428Z,23.07
2022-12-04T23:48:07.468Z,23.23
2022-12-04T23:50:55.085Z,22.93
2022-12-04T23:53:42.104Z,23.63
2022-12-04T23:56:29.437Z,22.90
2022-12-04T23:59:16.301Z,18.70
